Time;durP1;ratioP1;P1;durP2;ratioP2;P2;SDS_P1;SDS_P2;PMS_P1;PMS_P2;Temp;Humidity;BMP_temperature;BMP_pressure;BME280_temperature;BME280_humidity;BME280_pressure;Samples;Min_cycle;Max_cycle;Signal;HPM_P1;HPM_P2
2022/03/10 00:01:17;;;;;;;30.02;13.50;;;-0.20;99.90;;;;;;5054355;28;20027;-71
2022/03/10 00:03:43;;;;;;;27.67;14.10;;;-0.20;99.90;;;;;;5053380;28;20326;-71
2022/03/10 00:06:09;;;;;;;36.30;15.95;;;-0.30;99.90;;;;;;5053693;28;20068;-71
2022/03/10 00:08:35;;;;;;;33.80;15.88;;;-0.30;99.90;;;;;;5052009;28;20068;-70
2022/03/10 00:11:01;;;;;;;33.42;15.70;;;-0.30;99.90;;;;;;5053972;28;20064;-70
2022/03/10 00:13:29;;;;;;;32.78;15.23;;;-0.40;99.90;;;;;;5054037;28;20079;-70
2022/03/10 00:15:56;;;;;;;36.80;16.13;;;-0.40;99.90;;;;;;5053384;28;20017;-70
2022/03/10 00:18:21;;;;;;;31.63;14.27;;;-0.40;99.90;;;;;;5054057;28;20059;-70
2022/03/10 00:20:47;;;;;;;30.92;15.93;;;-0.50;99.90;;;;;;5052748;28;20057;-70
2022/03/10 00:23:12;;;;;;;31.75;15.25;;;-0.50;99.90;;;;;;5053497;28;20508;-70
2022/03/10 00:25:38;;;;;;;33.25;16.00;;;-0.60;99.90;;;;;;5053201;28;20040;-70
2022/03/10 00:28:04;;;;;;;31.33;15.30;;;-0.60;99.90;;;;;;5053740;28;20040;-70
2022/03/10 00:30:29;;;;;;;29.92;14.90;;;-0.60;99.90;;;;;;5053692;28;20529;-70
2022/03/10 00:32:55;;;;;;;33.55;16.27;;;-0.60;99.90;;;;;;5053093;28;20052;-70
2022/03/10 00:35:23;;;;;;;34.03;16.55;;;-0.60;99.90;;;;;;5053648;28;20029;-70
2022/03/10 00:37:49;;;;;;;32.40;15.35;;;-0.70;99.90;;;;;;5052534;28;20044;-71
2022/03/10 00:40:16;;;;;;;32.75;15.30;;;-0.70;99.90;;;;;;5053815;28;20480;-71
2022/03/10 00:42:43;;;;;;;29.02;13.80;;;-0.70;99.90;;;;;;5052820;28;20523;-70
2022/03/10 00:45:09;;;;;;;29.77;14.10;;;-0.80;99.90;;;;;;5053447;28;20025;-70
2022/03/10 00:47:35;;;;;;;28.60;13.98;;;-0.80;99.90;;;;;;5052212;28;20470;-70
2022/03/10 00:50:02;;;;;;;29.50;13.93;;;-0.80;99.90;;;;;;5052935;28;20104;-70
2022/03/10 00:52:28;;;;;;;28.25;14.50;;;-0.80;99.90;;;;;;5052858;28;20029;-70
2022/03/10 00:54:54;;;;;;;30.02;14.63;;;-0.90;99.90;;;;;;5052556;28;20678;-71
2022/03/10 00:57:20;;;;;;;33.60;15.40;;;-0.90;99.90;;;;;;5053261;28;20032;-71
2022/03/10 00:59:45;;;;;;;33.53;14.40;;;-0.90;99.90;;;;;;5052180;28;20120;-71
2022/03/10 01:02:11;;;;;;;32.42;14.63;;;-0.90;99.90;;;;;;5053537;28;20047;-71
2022/03/10 01:04:37;;;;;;;27.15;13.70;;;-1.00;99.90;;;;;;5053255;28;20025;-70
2022/03/10 01:07:03;;;;;;;34.60;15.30;;;-1.00;99.90;;;;;;5052936;28;20037;-70
2022/03/10 01:09:28;;;;;;;29.45;14.05;;;-1.00;99.90;;;;;;5052916;28;20428;-70
2022/03/10 01:11:54;;;;;;;29.25;13.98;;;-1.00;99.90;;;;;;5052101;28;20025;-70
2022/03/10 01:14:20;;;;;;;30.15;13.85;;;-1.00;99.90;;;;;;5053058;28;20489;-70
2022/03/10 01:16:46;;;;;;;33.13;15.13;;;-1.00;99.90;;;;;;5050787;28;20033;-70
2022/03/10 01:19:11;;;;;;;26.38;13.63;;;-1.00;99.90;;;;;;5052499;28;20116;-71
2022/03/10 01:21:37;;;;;;;30.63;15.18;;;-1.00;99.90;;;;;;5051659;28;20032;-71
2022/03/10 01:24:03;;;;;;;30.40;13.85;;;-1.00;99.90;;;;;;5052254;28;20100;-71
2022/03/10 01:26:29;;;;;;;31.48;14.27;;;-1.10;99.90;;;;;;5052251;28;20436;-70
2022/03/10 01:28:54;;;;;;;28.45;13.95;;;-1.10;99.90;;;;;;5051954;28;20017;-70
2022/03/10 01:31:20;;;;;;;32.05;14.25;;;-1.10;99.90;;;;;;5052228;28;20391;-70
2022/03/10 01:33:45;;;;;;;29.92;14.60;;;-1.10;99.90;;;;;;5051789;28;20021;-70
2022/03/10 01:36:11;;;;;;;30.52;14.43;;;-1.00;99.90;;;;;;5051957;28;20039;-70
2022/03/10 01:38:42;;;;;;;29.85;13.98;;;-1.00;99.90;;;;;;5051391;28;20029;-70
2022/03/10 01:41:08;;;;;;;30.83;14.63;;;-1.10;99.90;;;;;;5052279;28;20483;-70
2022/03/10 01:43:34;;;;;;;30.20;15.00;;;-1.10;99.90;;;;;;5051822;28;20106;-70
2022/03/10 01:46:02;;;;;;;37.85;15.85;;;-1.10;99.90;;;;;;5051794;28;20108;-71
2022/03/10 01:48:28;;;;;;;31.67;14.20;;;-1.10;99.90;;;;;;5052133;28;20029;-71
2022/03/10 01:50:54;;;;;;;30.63;14.05;;;-1.00;99.90;;;;;;5051475;28;20211;-71
2022/03/10 01:53:20;;;;;;;28.65;14.48;;;-1.00;99.90;;;;;;5052366;28;20032;-71
2022/03/10 01:55:46;;;;;;;25.02;12.50;;;-1.00;99.90;;;;;;5051242;28;20028;-71
2022/03/10 01:58:12;;;;;;;29.25;14.20;;;-1.10;99.90;;;;;;5050788;28;20029;-71
2022/03/10 02:00:38;;;;;;;27.98;13.70;;;-1.10;99.90;;;;;;5050819;28;20531;-71
2022/03/10 02:03:04;;;;;;;31.25;14.52;;;-1.10;99.90;;;;;;5052000;28;20025;-70
2022/03/10 02:05:31;;;;;;;29.75;14.02;;;-1.10;99.90;;;;;;5052072;28;20035;-70
2022/03/10 02:10:42;;;;;;;27.33;14.07;;;-1.10;99.90;;;;;;5050284;28;20043;-70
2022/03/10 02:13:08;;;;;;;25.15;13.02;;;-1.10;99.90;;;;;;5051842;28;20021;-70
2022/03/10 02:18:21;;;;;;;23.80;12.93;;;-1.10;99.90;;;;;;5051649;28;20444;-70
2022/03/10 02:20:47;;;;;;;25.35;12.57;;;-1.20;99.90;;;;;;5051117;28;20032;-70
2022/03/10 02:23:12;;;;;;;24.15;12.55;;;-1.20;99.90;;;;;;5051777;28;20423;-68
2022/03/10 02:25:40;;;;;;;25.55;11.35;;;-1.30;99.90;;;;;;5049322;28;20031;-68
2022/03/10 02:28:05;;;;;;;22.60;11.43;;;-1.30;99.90;;;;;;5051450;28;20440;-68
2022/03/10 02:30:32;;;;;;;25.45;12.60;;;-1.30;99.90;;;;;;5051769;28;20029;-68
2022/03/10 02:32:58;;;;;;;26.25;12.20;;;-1.40;99.90;;;;;;5049657;28;20490;-68
2022/03/10 02:35:24;;;;;;;22.13;11.85;;;-1.40;99.90;;;;;;5051732;28;20029;-68
2022/03/10 02:37:50;;;;;;;24.58;11.30;;;-1.50;99.90;;;;;;5051016;28;20037;-68
2022/03/10 02:40:15;;;;;;;27.48;13.27;;;-1.50;99.90;;;;;;5051687;28;20025;-68
2022/03/10 02:42:41;;;;;;;30.35;13.70;;;-1.50;99.90;;;;;;5050786;28;20056;-68
2022/03/10 02:45:08;;;;;;;24.05;13.02;;;-1.50;99.90;;;;;;5051478;28;20068;-68
2022/03/10 02:47:34;;;;;;;26.27;11.95;;;-1.40;99.90;;;;;;5051482;28;20466;-68
2022/03/10 02:50:00;;;;;;;23.42;11.52;;;-1.40;99.90;;;;;;5050963;28;20456;-69
2022/03/10 02:52:25;;;;;;;24.77;12.52;;;-1.40;99.90;;;;;;5051359;28;20112;-68
2022/03/10 02:54:51;;;;;;;22.77;11.27;;;-1.40;99.90;;;;;;5050643;28;20454;-68
2022/03/10 02:57:17;;;;;;;27.98;13.02;;;-1.40;99.90;;;;;;5050165;28;20029;-69
2022/03/10 02:59:42;;;;;;;26.40;12.90;;;-1.40;99.90;;;;;;5050689;28;20451;-68
2022/03/10 03:02:08;;;;;;;25.73;11.77;;;-1.40;99.90;;;;;;5051412;28;20055;-69
2022/03/10 03:04:34;;;;;;;25.60;12.77;;;-1.50;99.90;;;;;;5050121;28;20036;-68
2022/03/10 03:07:01;;;;;;;23.48;11.57;;;-1.50;99.90;;;;;;5050628;28;20029;-68
2022/03/10 03:09:26;;;;;;;24.70;12.63;;;-1.60;99.90;;;;;;5050924;28;20478;-69
2022/03/10 03:11:52;;;;;;;27.23;12.57;;;-1.70;99.90;;;;;;5050226;28;20129;-68
2022/03/10 03:14:22;;;;;;;26.15;13.25;;;-1.60;99.90;;;;;;5050876;28;20096;-69
2022/03/10 03:16:52;;;;;;;24.42;11.80;;;-1.60;99.90;;;;;;5050131;28;20029;-69
2022/03/10 03:19:18;;;;;;;20.30;10.60;;;-1.60;99.90;;;;;;5048499;28;20067;-69
2022/03/10 03:21:43;;;;;;;27.50;12.95;;;-1.70;99.90;;;;;;5050921;28;20056;-69
2022/03/10 03:24:09;;;;;;;22.83;12.07;;;-1.70;99.90;;;;;;5053383;28;20036;-70
2022/03/10 03:26:35;;;;;;;28.02;12.43;;;-1.70;99.90;;;;;;5053265;28;20037;-69
2022/03/10 03:29:01;;;;;;;25.02;11.88;;;-1.70;99.90;;;;;;5052838;28;20052;-69
2022/03/10 03:31:26;;;;;;;26.63;12.45;;;-1.60;99.90;;;;;;5053688;28;20048;-69
2022/03/10 03:33:52;;;;;;;27.73;12.50;;;-1.50;99.90;;;;;;5052750;28;20032;-69
2022/03/10 03:36:18;;;;;;;22.25;11.45;;;-1.50;99.90;;;;;;5053754;28;20434;-69
2022/03/10 03:38:44;;;;;;;25.67;11.48;;;-1.50;99.90;;;;;;5052532;28;20021;-69
2022/03/10 03:41:09;;;;;;;26.25;12.75;;;-1.60;99.90;;;;;;5053845;28;20818;-69
2022/03/10 03:43:35;;;;;;;27.83;12.02;;;-1.60;99.90;;;;;;5054272;28;20096;-69
2022/03/10 03:46:01;;;;;;;28.80;12.52;;;-1.70;99.90;;;;;;5052535;28;20029;-69
2022/03/10 03:48:26;;;;;;;24.65;11.93;;;-1.80;99.90;;;;;;5054162;28;20032;-68
2022/03/10 03:50:52;;;;;;;24.70;12.27;;;-1.80;99.90;;;;;;5053899;28;20382;-68
2022/03/10 03:53:18;;;;;;;24.05;12.07;;;-1.80;99.90;;;;;;5054115;28;20025;-69
2022/03/10 03:55:44;;;;;;;25.45;11.85;;;-1.80;99.90;;;;;;5053608;28;20036;-68
2022/03/10 03:58:11;;;;;;;24.70;11.63;;;-1.80;99.90;;;;;;5053838;28;20029;-69
2022/03/10 04:00:37;;;;;;;27.73;12.88;;;-1.90;99.90;;;;;;5053884;28;20383;-68
2022/03/10 04:03:08;;;;;;;27.70;13.55;;;-1.90;99.90;;;;;;5053600;28;20036;-68
2022/03/10 04:05:34;;;;;;;31.80;14.90;;;-1.90;99.90;;;;;;5054118;28;20029;-68
2022/03/10 04:08:00;;;;;;;27.48;13.27;;;-1.90;99.90;;;;;;5053378;28;20119;-68
2022/03/10 04:10:25;;;;;;;34.83;16.25;;;-1.90;99.90;;;;;;5054509;28;20033;-69
2022/03/10 04:12:51;;;;;;;31.92;14.55;;;-1.90;99.90;;;;;;5052887;28;20056;-68
2022/03/10 04:15:17;;;;;;;26.10;13.52;;;-1.90;99.90;;;;;;5054018;28;20053;-69
2022/03/10 04:17:42;;;;;;;29.83;14.27;;;-2.00;99.90;;;;;;5051959;28;20120;-69
2022/03/10 04:20:13;;;;;;;28.77;13.05;;;-2.00;99.90;;;;;;5053901;28;20367;-69
2022/03/10 04:22:39;;;;;;;27.60;13.13;;;-2.00;99.90;;;;;;5053867;28;20029;-69
2022/03/10 04:25:08;;;;;;;29.67;14.18;;;-2.10;99.90;;;;;;5053703;28;20106;-68
2022/03/10 04:27:35;;;;;;;29.55;14.25;;;-2.00;99.90;;;;;;5053342;28;20037;-69
2022/03/10 04:30:02;;;;;;;31.05;14.30;;;-2.10;99.90;;;;;;5052877;28;20086;-69
2022/03/10 04:32:27;;;;;;;28.98;14.20;;;-2.00;99.90;;;;;;5053646;28;20029;-69
2022/03/10 04:34:53;;;;;;;31.40;14.80;;;-2.10;99.90;;;;;;5052050;28;20051;-69
2022/03/10 04:37:18;;;;;;;29.85;13.57;;;-2.10;99.90;;;;;;5053616;28;20159;-69
2022/03/10 04:39:44;;;;;;;30.10;14.68;;;-2.20;99.90;;;;;;5052807;28;20036;-69
2022/03/10 04:42:10;;;;;;;34.67;15.15;;;-2.20;99.90;;;;;;5053219;28;20533;-69
2022/03/10 04:44:35;;;;;;;30.88;15.15;;;-2.20;99.90;;;;;;5053253;28;20020;-69
2022/03/10 04:47:01;;;;;;;30.40;15.02;;;-2.30;99.90;;;;;;5052626;28;20473;-70
2022/03/10 04:49:27;;;;;;;29.75;14.60;;;-2.30;99.90;;;;;;5053440;28;20036;-70
2022/03/10 04:51:52;;;;;;;31.90;16.00;;;-2.30;99.90;;;;;;5052612;28;20025;-69
2022/03/10 04:54:18;;;;;;;32.28;14.43;;;-2.30;99.90;;;;;;5053000;28;20032;-70
2022/03/10 04:56:44;;;;;;;32.53;15.80;;;-2.30;99.90;;;;;;5052711;28;20036;-71
2022/03/10 04:59:10;;;;;;;29.23;14.55;;;-2.30;99.90;;;;;;5052873;28;20063;-71
2022/03/10 05:01:36;;;;;;;35.55;15.20;;;-2.30;99.90;;;;;;5051833;28;20032;-71
2022/03/10 05:04:02;;;;;;;33.60;16.75;;;-2.30;99.90;;;;;;5052359;28;20029;-71
2022/03/10 05:06:28;;;;;;;33.17;16.33;;;-2.40;99.90;;;;;;5052834;28;20103;-70
2022/03/10 05:08:53;;;;;;;30.52;15.00;;;-2.40;99.90;;;;;;5052228;28;20047;-68
2022/03/10 05:11:19;;;;;;;31.25;16.02;;;-2.40;99.90;;;;;;5052951;28;20478;-68
2022/03/10 05:13:45;;;;;;;31.30;15.00;;;-2.40;99.90;;;;;;5052290;28;20031;-68
2022/03/10 05:16:11;;;;;;;28.48;14.48;;;-2.40;99.90;;;;;;5052969;28;20074;-68
2022/03/10 05:18:37;;;;;;;28.83;15.20;;;-2.30;99.90;;;;;;5052133;28;20037;-68
2022/03/10 05:21:02;;;;;;;33.50;15.50;;;-2.30;99.90;;;;;;5052009;28;20204;-68
2022/03/10 05:23:28;;;;;;;33.97;15.57;;;-2.30;99.90;;;;;;5052864;28;20036;-68
2022/03/10 05:25:54;;;;;;;30.10;14.68;;;-2.40;99.90;;;;;;5051872;28;20037;-68
2022/03/10 05:28:19;;;;;;;30.83;15.27;;;-2.40;99.90;;;;;;5052452;28;20377;-68
2022/03/10 05:30:47;;;;;;;31.85;15.45;;;-2.40;99.90;;;;;;5051580;28;20094;-68
2022/03/10 05:33:13;;;;;;;30.10;14.85;;;-2.50;99.90;;;;;;5052332;28;20033;-68
2022/03/10 05:35:39;;;;;;;33.92;15.13;;;-2.50;99.90;;;;;;5052789;28;20025;-68
2022/03/10 05:38:05;;;;;;;35.20;15.43;;;-2.60;99.90;;;;;;5051463;28;20613;-67
2022/03/10 05:40:31;;;;;;;31.10;14.55;;;-2.60;99.90;;;;;;5051932;28;20039;-67
2022/03/10 05:42:57;;;;;;;35.80;15.93;;;-2.60;99.90;;;;;;5051771;28;20037;-67
2022/03/10 05:45:24;;;;;;;36.38;16.20;;;-2.50;99.90;;;;;;5052241;28;20025;-67
2022/03/10 05:47:51;;;;;;;33.53;15.32;;;-2.40;99.90;;;;;;5051504;28;20033;-67
2022/03/10 05:50:17;;;;;;;35.25;14.25;;;-2.40;99.90;;;;;;5052334;28;20037;-67
2022/03/10 05:52:45;;;;;;;30.10;13.63;;;-2.40;99.90;;;;;;5051961;28;20041;-69
2022/03/10 05:55:12;;;;;;;29.85;13.80;;;-2.30;99.90;;;;;;5051949;28;20036;-68
2022/03/10 05:57:38;;;;;;;31.33;14.50;;;-2.20;99.90;;;;;;5051994;28;20459;-68
2022/03/10 06:00:05;;;;;;;27.85;13.82;;;-2.10;99.90;;;;;;5051224;28;20044;-68
2022/03/10 06:02:31;;;;;;;30.48;14.73;;;-2.10;99.90;;;;;;5051443;28;20502;-66
2022/03/10 06:05:01;;;;;;;26.58;13.55;;;-2.10;99.90;;;;;;5050777;28;20049;-66
2022/03/10 06:07:28;;;;;;;28.48;14.98;;;-2.20;99.90;;;;;;5051540;28;20025;-67
2022/03/10 06:09:55;;;;;;;35.42;16.00;;;-2.20;99.90;;;;;;5051115;28;20407;-68
2022/03/10 06:12:22;;;;;;;30.33;14.13;;;-2.10;99.90;;;;;;5051612;28;20132;-67
2022/03/10 06:14:48;;;;;;;28.45;14.75;;;-2.10;99.90;;;;;;5051093;28;20028;-67
2022/03/10 06:17:14;;;;;;;29.77;14.10;;;-2.20;99.90;;;;;;5051464;28;20025;-69
2022/03/10 06:19:40;;;;;;;31.48;15.32;;;-2.10;99.90;;;;;;5051187;28;20422;-68
2022/03/10 06:22:05;;;;;;;30.80;14.60;;;-2.10;99.90;;;;;;5050219;28;20029;-70
2022/03/10 06:24:32;;;;;;;32.35;14.60;;;-2.10;99.90;;;;;;5053837;28;20036;-67
2022/03/10 06:26:58;;;;;;;37.25;17.52;;;-2.10;99.90;;;;;;5050717;28;20041;-68
2022/03/10 06:29:24;;;;;;;35.88;17.98;;;-2.10;99.90;;;;;;5051529;28;20063;-68
2022/03/10 06:31:51;;;;;;;39.10;18.17;;;-2.10;99.90;;;;;;5050795;28;20025;-72
2022/03/10 06:34:17;;;;;;;37.83;17.35;;;-2.10;99.90;;;;;;5051432;28;20036;-68
2022/03/10 06:36:42;;;;;;;34.50;16.27;;;-2.10;99.90;;;;;;5051539;28;20083;-68
2022/03/10 06:39:08;;;;;;;36.53;16.80;;;-2.00;99.90;;;;;;5050845;28;20492;-68
2022/03/10 06:41:33;;;;;;;38.70;17.00;;;-2.00;99.90;;;;;;5051385;28;20036;-70
2022/03/10 06:43:59;;;;;;;40.45;18.70;;;-1.80;99.90;;;;;;5050775;28;20024;-72
2022/03/10 06:46:25;;;;;;;36.28;17.27;;;-1.70;99.90;;;;;;5051317;28;20382;-72
2022/03/10 06:48:51;;;;;;;35.45;17.55;;;-1.50;99.90;;;;;;5050513;28;20025;-71
2022/03/10 06:51:16;;;;;;;38.55;17.17;;;-1.40;99.90;;;;;;5051226;28;20108;-72
2022/03/10 06:53:42;;;;;;;37.88;16.20;;;-1.30;99.90;;;;;;5051452;28;20063;-71
2022/03/10 06:56:08;;;;;;;36.40;16.27;;;-1.20;99.90;;;;;;5050559;28;20032;-73
2022/03/10 06:58:34;;;;;;;40.45;18.15;;;-1.10;99.90;;;;;;5055243;28;20148;-67
2022/03/10 07:00:59;;;;;;;40.25;17.33;;;-1.00;99.90;;;;;;5054141;28;20025;-68
2022/03/10 07:03:25;;;;;;;44.88;17.77;;;-0.90;99.90;;;;;;5055262;28;20490;-68
2022/03/10 07:05:51;;;;;;;38.22;17.00;;;-0.80;99.90;;;;;;5054081;28;20398;-68
2022/03/10 07:08:17;;;;;;;36.47;16.88;;;-0.60;99.90;;;;;;5061419;28;20035;-68
2022/03/10 07:10:42;;;;;;;32.58;15.23;;;-0.50;99.90;;;;;;5075992;28;20024;-66
2022/03/10 07:13:08;;;;;;;40.03;18.52;;;-0.40;99.90;;;;;;5060632;28;20486;-68
2022/03/10 07:15:34;;;;;;;34.85;17.15;;;-0.30;99.90;;;;;;5055520;28;20029;-67
2022/03/10 07:18:00;;;;;;;33.13;16.67;;;-0.20;99.90;;;;;;5054961;28;20455;-70
2022/03/10 07:20:25;;;;;;;34.47;15.98;;;-0.10;99.90;;;;;;5055123;28;20373;-72
2022/03/10 07:22:51;;;;;;;38.67;17.80;;;0.00;99.90;;;;;;5054195;28;20017;-70
2022/03/10 07:25:17;;;;;;;39.00;18.05;;;0.10;99.90;;;;;;5054905;28;20035;-71
2022/03/10 07:27:42;;;;;;;36.95;18.77;;;0.20;99.90;;;;;;5054741;28;20470;-69
2022/03/10 07:30:09;;;;;;;37.38;18.05;;;0.30;99.90;;;;;;5053739;28;20045;-69
2022/03/10 07:32:34;;;;;;;37.75;19.00;;;0.40;99.90;;;;;;5054625;28;20068;-69
2022/03/10 07:35:01;;;;;;;41.80;19.45;;;0.50;99.90;;;;;;5054230;28;20423;-70
2022/03/10 07:37:27;;;;;;;39.88;20.10;;;0.80;99.90;;;;;;5057164;28;20029;-68
2022/03/10 07:39:53;;;;;;;38.65;19.30;;;0.90;99.90;;;;;;5073490;28;20039;-68
2022/03/10 07:42:19;;;;;;;38.47;19.80;;;1.10;99.90;;;;;;5074609;28;20068;-68
2022/03/10 07:44:45;;;;;;;49.17;23.60;;;1.20;99.90;;;;;;5061762;28;20025;-69
2022/03/10 07:47:11;;;;;;;45.47;23.38;;;1.20;99.90;;;;;;5053352;28;20112;-67
2022/03/10 07:49:37;;;;;;;43.40;21.45;;;1.40;99.90;;;;;;5054669;28;20025;-67
2022/03/10 07:52:03;;;;;;;41.50;20.45;;;1.50;99.90;;;;;;5053595;28;20040;-67
2022/03/10 07:54:29;;;;;;;39.90;20.05;;;1.60;99.90;;;;;;5054409;28;20071;-68
2022/03/10 07:56:55;;;;;;;48.75;22.50;;;1.70;99.90;;;;;;5053336;28;20068;-67
2022/03/10 07:59:21;;;;;;;43.42;21.98;;;1.80;99.90;;;;;;5053814;28;20045;-68
2022/03/10 08:01:46;;;;;;;41.30;20.50;;;2.00;99.90;;;;;;5053774;28;20029;-68
2022/03/10 08:04:12;;;;;;;43.58;20.00;;;2.20;99.90;;;;;;5053175;28;20025;-69
2022/03/10 08:06:38;;;;;;;42.80;20.85;;;2.30;99.30;;;;;;5053835;28;20512;-69
2022/03/10 08:09:06;;;;;;;43.20;20.83;;;2.40;98.70;;;;;;5067674;28;20029;-68
2022/03/10 08:11:32;;;;;;;42.67;22.17;;;2.70;97.60;;;;;;5072632;28;20025;-68
2022/03/10 08:13:58;;;;;;;42.95;21.38;;;2.90;96.60;;;;;;5073013;28;20449;-68
2022/03/10 08:16:24;;;;;;;40.92;20.67;;;3.10;94.90;;;;;;5073395;28;20056;-69
2022/03/10 08:18:49;;;;;;;43.53;21.83;;;3.30;93.90;;;;;;5073365;28;20373;-67
2022/03/10 08:21:16;;;;;;;41.08;21.48;;;3.40;93.30;;;;;;5073225;28;20378;-68
2022/03/10 08:23:42;;;;;;;51.30;22.13;;;3.60;92.60;;;;;;5073689;28;20021;-67
2022/03/10 08:26:08;;;;;;;46.05;21.80;;;3.80;91.20;;;;;;5072702;28;20826;-69
2022/03/10 08:28:34;;;;;;;180.90;27.40;;;4.00;90.50;;;;;;5073614;28;20024;-69
2022/03/10 08:31:01;;;;;;;45.92;20.77;;;4.00;90.10;;;;;;5072588;28;20482;-67
2022/03/10 08:33:28;;;;;;;40.60;21.63;;;4.10;89.90;;;;;;5071910;28;20382;-68
2022/03/10 08:35:53;;;;;;;37.72;20.15;;;4.20;87.80;;;;;;5072544;28;20025;-67
2022/03/10 08:38:19;;;;;;;38.20;21.25;;;4.50;86.30;;;;;;5073179;28;20030;-69
2022/03/10 08:40:45;;;;;;;39.45;20.38;;;4.50;85.80;;;;;;5073382;28;20036;-69
2022/03/10 08:43:12;;;;;;;46.28;22.27;;;4.60;86.50;;;;;;5072628;28;20095;-68
2022/03/10 08:45:39;;;;;;;44.65;22.67;;;4.80;84.40;;;;;;5033360;28;20017;-68
2022/03/10 08:48:05;;;;;;;46.92;22.65;;;5.00;84.70;;;;;;5032273;28;20054;-68
2022/03/10 08:50:31;;;;;;;46.88;22.90;;;5.10;82.90;;;;;;5065408;28;20028;-68
2022/03/10 08:52:57;;;;;;;47.50;23.00;;;5.20;82.20;;;;;;5032541;28;20037;-68
2022/03/10 08:55:23;;;;;;;41.97;22.40;;;5.20;81.40;;;;;;5033301;28;20029;-68
2022/03/10 08:57:49;;;;;;;44.55;22.77;;;5.40;81.50;;;;;;5032895;28;20493;-68
2022/03/10 09:00:16;;;;;;;39.45;20.55;;;5.50;80.70;;;;;;5032393;28;20045;-68
2022/03/10 09:02:41;;;;;;;36.25;19.20;;;5.60;79.50;;;;;;5039137;28;20481;-68
2022/03/10 09:05:08;;;;;;;41.70;20.27;;;5.80;78.80;;;;;;5053054;28;20032;-68
2022/03/10 09:07:35;;;;;;;34.78;18.92;;;6.00;78.00;;;;;;5056666;28;20452;-68
2022/03/10 09:10:01;;;;;;;37.42;18.63;;;6.20;77.20;;;;;;5071816;28;20032;-67
2022/03/10 09:12:27;;;;;;;37.47;18.23;;;6.60;74.80;;;;;;5072904;28;20100;-68
2022/03/10 09:14:53;;;;;;;34.25;17.45;;;6.80;73.40;;;;;;5070380;28;20024;-68
2022/03/10 09:17:19;;;;;;;34.20;18.13;;;6.90;72.70;;;;;;5072817;28;20095;-68
2022/03/10 09:19:45;;;;;;;32.72;17.02;;;7.10;72.60;;;;;;5072133;28;20029;-68
2022/03/10 09:22:11;;;;;;;28.02;15.75;;;7.10;72.10;;;;;;5052559;28;20597;-68
2022/03/10 09:24:36;;;;;;;28.60;15.18;;;7.20;70.50;;;;;;5035600;28;20033;-68
2022/03/10 09:27:02;;;;;;;34.30;17.98;;;7.40;68.80;;;;;;5049522;28;20037;-68
2022/03/10 09:29:28;;;;;;;33.78;17.50;;;;;;;;;;5052531;28;20112;-68
2022/03/10 09:31:54;;;;;;;36.35;19.85;;;7.70;68.10;;;;;;5051735;28;20013;-68
2022/03/10 09:34:19;;;;;;;30.77;16.80;;;7.80;68.40;;;;;;5051222;28;20044;-68
2022/03/10 09:36:46;;;;;;;23.27;14.05;;;7.90;67.10;;;;;;5032215;28;20435;-69
2022/03/10 09:39:13;;;;;;;31.45;17.10;;;8.00;65.90;;;;;;5031697;28;20022;-68
2022/03/10 09:41:39;;;;;;;32.13;16.77;;;8.10;66.50;;;;;;5032872;28;20040;-69
2022/03/10 09:44:26;;;;;;;28.60;15.85;;;8.30;66.10;;;;;;5038692;28;20017;-68
2022/03/10 09:46:53;;;;;;;31.63;16.48;;;8.50;64.90;;;;;;5051697;28;20065;-67
2022/03/10 09:49:21;;;;;;;30.95;16.92;;;8.70;64.60;;;;;;5051644;28;20041;-68
2022/03/10 09:51:50;;;;;;;33.92;15.50;;;8.80;64.80;;;;;;5051925;28;20436;-68
2022/03/10 09:54:16;;;;;;;36.17;16.73;;;8.90;64.20;;;;;;5051779;28;20063;-68
2022/03/10 09:56:43;;;;;;;109.70;20.13;;;9.10;63.40;;;;;;5051817;28;20391;-68
2022/03/10 09:59:09;;;;;;;36.78;13.90;;;9.10;63.00;;;;;;5050944;28;20132;-69
2022/03/10 10:01:35;;;;;;;42.88;14.05;;;9.30;61.70;;;;;;5052094;28;20025;-69
2022/03/10 10:04:01;;;;;;;24.38;13.40;;;9.40;61.60;;;;;;5050925;28;20040;-68
2022/03/10 10:06:27;;;;;;;23.95;12.20;;;9.50;61.50;;;;;;5051658;28;20394;-69
2022/03/10 10:08:57;;;;;;;19.48;11.43;;;9.60;60.40;;;;;;5051365;28;20466;-68
2022/03/10 10:11:33;;;;;;;23.02;12.32;;;9.70;60.90;;;;;;5051582;28;20479;-68
2022/03/10 10:13:59;;;;;;;19.48;8.70;;;9.90;60.10;;;;;;5050731;28;20486;-68
2022/03/10 10:16:26;;;;;;;19.17;8.50;;;10.20;57.90;;;;;;5051851;28;20017;-69
2022/03/10 10:18:56;;;;;;;23.80;13.88;;;10.40;58.00;;;;;;5051693;28;20374;-69
2022/03/10 10:21:22;;;;;;;;;;;10.60;58.10;;;;;;5051989;28;20033;-68
2022/03/10 10:23:49;;;;;;;34.40;15.23;;;10.70;58.30;;;;;;5051378;28;19905;-69
2022/03/10 10:26:15;;;;;;;26.33;13.85;;;10.90;57.80;;;;;;5050872;28;20036;-68
2022/03/10 10:28:43;;;;;;;29.77;13.38;;;11.00;56.90;;;;;;5051609;28;20099;-67
2022/03/10 10:31:11;;;;;;;26.20;13.50;;;11.10;56.90;;;;;;5050097;28;20029;-67
2022/03/10 10:33:38;;;;;;;22.15;12.02;;;11.20;57.10;;;;;;5051374;28;20029;-67
2022/03/10 10:36:19;;;;;;;37.63;13.20;;;11.20;55.60;;;;;;5050652;28;20417;-67
2022/03/10 10:38:47;;;;;;;23.83;11.65;;;11.20;55.40;;;;;;5051506;28;20546;-68
2022/03/10 10:41:25;;;;;;;24.02;11.88;;;11.40;54.00;;;;;;5050511;28;20075;-68
2022/03/10 10:43:54;;;;;;;20.77;11.10;;;11.50;54.40;;;;;;5051468;28;20398;-68
2022/03/10 10:46:24;;;;;;;13.27;7.75;;;11.50;54.60;;;;;;5051205;28;20051;-68
2022/03/10 10:48:49;;;;;;;16.60;7.60;;;11.80;52.60;;;;;;5051156;28;20386;-68
2022/03/10 10:51:26;;;;;;;13.43;6.72;;;11.80;52.30;;;;;;5050459;28;20025;-68
2022/03/10 10:53:52;;;;;;;12.70;6.78;;;12.00;51.70;;;;;;5050214;28;20036;-68
2022/03/10 10:56:19;;;;;;;13.38;6.30;;;12.20;51.30;;;;;;5050670;28;20028;-68
2022/03/10 10:58:45;;;;;;;12.27;6.65;;;12.30;51.50;;;;;;5051282;28;20079;-68
2022/03/10 11:01:32;;;;;;;13.00;6.85;;;12.50;50.20;;;;;;5050317;28;20448;-69
2022/03/10 11:03:58;;;;;;;7.75;5.82;;;12.70;50.20;;;;;;5050608;28;20029;-68
2022/03/10 11:06:25;;;;;;;12.93;6.03;;;12.80;50.60;;;;;;5051054;28;20071;-68
2022/03/10 11:08:53;;;;;;;10.82;5.32;;;13.10;47.30;;;;;;5051089;28;20033;-68
2022/03/10 11:11:20;;;;;;;6.03;3.80;;;13.10;47.80;;;;;;5050676;28;20033;-68
2022/03/10 11:13:50;;;;;;;11.63;4.13;;;13.30;46.40;;;;;;5051351;28;20196;-68
2022/03/10 11:16:18;;;;;;;7.03;3.65;;;13.30;46.20;;;;;;5050449;28;20245;-68
2022/03/10 11:18:49;;;;;;;5.65;4.05;;;13.20;45.60;;;;;;5051190;28;20099;-68
2022/03/10 11:21:23;;;;;;;13.38;3.92;;;13.20;45.70;;;;;;5050299;28;20025;-69
2022/03/10 11:24:10;;;;;;;6.45;3.90;;;13.10;45.80;;;;;;5051569;28;20025;-69
2022/03/10 11:27:03;;;;;;;6.53;3.67;;;13.10;46.50;;;;;;5051136;28;20047;-69
2022/03/10 11:29:34;;;;;;;9.30;3.20;;;13.30;46.00;;;;;;5051321;28;20025;-69
2022/03/10 11:32:00;;;;;;;6.95;3.35;;;13.40;44.90;;;;;;5050370;28;20516;-69
2022/03/10 11:34:49;;;;;;;7.32;3.60;;;13.40;45.00;;;;;;5051249;28;20032;-69
2022/03/10 11:37:37;;;;;;;5.43;3.28;;;13.50;44.50;;;;;;5050002;28;20029;-69
2022/03/10 11:40:05;;;;;;;7.72;3.25;;;13.50;45.00;;;;;;5049835;28;20033;-69
2022/03/10 11:42:32;;;;;;;4.28;3.42;;;13.70;44.20;;;;;;5051611;28;20433;-69
2022/03/10 11:45:07;;;;;;;4.07;3.05;;;;;;;;;;5053737;28;20047;-69
2022/03/10 11:47:33;;;;;;;4.03;3.30;;;13.80;43.50;;;;;;5054585;28;20040;-69
2022/03/10 11:50:24;;;;;;;6.93;3.53;;;14.00;43.50;;;;;;5053863;28;20025;-69
2022/03/10 11:53:06;;;;;;;5.88;3.80;;;14.00;43.30;;;;;;5054328;28;20351;-69
2022/03/10 11:55:43;;;;;;;6.07;3.78;;;14.10;43.10;;;;;;5054423;28;20025;-69
2022/03/10 11:58:13;;;;;;;9.30;3.83;;;14.40;42.90;;;;;;5053559;28;20028;-69
2022/03/10 12:00:44;;;;;;;4.68;3.13;;;14.80;42.10;;;;;;5053840;28;20179;-69
2022/03/10 12:03:24;;;;;;;3.55;2.97;;;15.00;40.70;;;;;;5053292;28;20500;-69
2022/03/10 12:06:07;;;;;;;5.07;3.33;;;15.30;40.70;;;;;;5054243;28;20100;-69
2022/03/10 12:08:37;;;;;;;4.55;3.28;;;15.60;39.70;;;;;;5054211;28;20037;-69
2022/03/10 12:11:14;;;;;;;5.40;3.10;;;15.90;39.70;;;;;;5053278;28;20473;-69
2022/03/10 12:13:44;;;;;;;8.00;3.75;;;16.20;39.40;;;;;;5054029;28;20094;-69
2022/03/10 12:16:27;;;;;;;3.88;3.10;;;16.70;37.80;;;;;;5053159;28;20148;-69
2022/03/10 12:18:54;;;;;;;4.32;3.13;;;16.70;38.50;;;;;;5054163;28;20112;-69
2022/03/10 12:21:27;;;;;;;6.10;3.40;;;17.20;37.80;;;;;;5053300;28;20025;-69
2022/03/10 12:24:04;;;;;;;11.95;4.07;;;17.20;37.90;;;;;;5053849;28;20032;-69
2022/03/10 12:26:37;;;;;;;10.40;3.60;;;17.50;37.40;;;;;;5053705;28;20033;-69
2022/03/10 12:29:06;;;;;;;15.80;4.32;;;17.60;37.10;;;;;;5052960;28;20467;-70
2022/03/10 12:31:35;;;;;;;6.47;3.40;;;17.80;36.60;;;;;;5053875;28;20116;-69
2022/03/10 12:34:06;;;;;;;14.02;4.25;;;18.00;36.10;;;;;;5052796;28;20061;-69
2022/03/10 12:36:42;;;;;;;18.05;9.10;;;17.90;35.60;;;;;;5053600;28;20028;-69
2022/03/10 12:39:09;;;;;;;37.75;8.38;;;17.80;36.10;;;;;;5052727;28;20079;-69